Time;durP1;ratioP1;P1;durP2;ratioP2;P2;SDS_P1;SDS_P2;PMS_P1;PMS_P2;Temp;Humidity;BMP_temperature;BMP_pressure;BME280_temperature;BME280_humidity;BME280_pressure;Samples;Min_cycle;Max_cycle;Signal;HPM_P1;HPM_P2
2022/07/06 00:01:58;;;;;;;6.95;1.90;;;13.90;99.90;;;;;;5034596;28;20084;-70
2022/07/06 00:04:24;;;;;;;8.20;1.90;;;13.80;99.90;;;;;;5045505;28;20049;-70
2022/07/06 00:06:50;;;;;;;6.70;2.30;;;13.80;99.90;;;;;;5055446;28;20045;-69
2022/07/06 00:09:16;;;;;;;5.93;1.80;;;13.80;99.90;;;;;;5054591;28;20438;-69
2022/07/06 00:11:42;;;;;;;6.32;1.70;;;13.80;99.90;;;;;;5039200;28;20046;-70
2022/07/06 00:14:08;;;;;;;6.65;1.98;;;13.80;99.90;;;;;;5042197;28;20045;-69
2022/07/06 00:16:33;;;;;;;6.75;2.03;;;13.80;99.90;;;;;;5042406;28;20512;-70
2022/07/06 00:18:59;;;;;;;6.75;2.10;;;13.80;99.90;;;;;;5003144;28;20128;-70
2022/07/06 00:21:25;;;;;;;9.48;2.20;;;13.80;99.90;;;;;;5034471;28;20128;-70
2022/07/06 00:23:51;;;;;;;6.18;1.73;;;13.80;99.90;;;;;;5051296;28;20052;-71
2022/07/06 00:26:18;;;;;;;5.80;1.80;;;13.80;99.90;;;;;;5034343;28;20057;-71
2022/07/06 00:28:44;;;;;;;5.80;1.80;;;13.80;99.90;;;;;;5033079;28;20049;-71
2022/07/06 00:31:09;;;;;;;7.35;1.80;;;13.90;99.90;;;;;;5049315;28;20048;-69
2022/07/06 00:33:35;;;;;;;6.50;1.80;;;13.80;99.90;;;;;;5045359;28;20498;-70
2022/07/06 00:36:01;;;;;;;7.03;1.90;;;13.90;99.90;;;;;;5039624;28;20046;-70
2022/07/06 00:38:27;;;;;;;5.63;1.70;;;13.90;99.90;;;;;;5045790;28;20054;-70
2022/07/06 00:40:52;;;;;;;6.15;1.90;;;13.90;99.90;;;;;;5017820;28;20046;-74
2022/07/06 00:43:18;;;;;;;4.72;1.67;;;13.90;99.90;;;;;;5035763;28;20151;-70
2022/07/06 00:45:44;;;;;;;7.70;1.73;;;14.00;99.90;;;;;;5046116;28;20049;-70
2022/07/06 00:48:10;;;;;;;6.15;1.60;;;14.00;99.90;;;;;;5032890;28;20041;-70
2022/07/06 00:50:35;;;;;;;6.25;1.70;;;14.00;99.90;;;;;;5034065;28;20378;-71
2022/07/06 00:53:04;;;;;;;7.35;1.90;;;14.10;99.90;;;;;;5017453;28;20416;-70
2022/07/06 00:55:32;;;;;;;6.50;2.08;;;14.10;99.90;;;;;;5034102;28;20053;-71
2022/07/06 00:58:00;;;;;;;6.47;1.80;;;14.00;99.90;;;;;;5046490;28;20136;-72
2022/07/06 01:00:27;;;;;;;7.38;1.88;;;14.00;99.90;;;;;;5047452;28;20064;-70
2022/07/06 01:02:53;;;;;;;6.43;1.70;;;13.90;99.90;;;;;;5029576;28;20056;-70
2022/07/06 01:05:19;;;;;;;5.97;2.00;;;13.90;99.90;;;;;;5048365;28;20046;-70
2022/07/06 01:07:47;;;;;;;8.75;2.08;;;13.90;99.90;;;;;;5016873;28;20049;-70
2022/07/06 01:10:15;;;;;;;7.43;2.00;;;13.90;99.90;;;;;;5033633;28;20057;-71
2022/07/06 01:12:43;;;;;;;6.90;1.92;;;13.90;99.90;;;;;;5041645;28;20314;-70
2022/07/06 01:15:17;;;;;;;5.88;1.80;;;13.90;99.90;;;;;;5037489;28;20041;-70
2022/07/06 01:17:43;;;;;;;7.82;1.98;;;13.90;99.90;;;;;;5042178;28;20076;-70
2022/07/06 01:20:16;;;;;;;7.38;1.90;;;13.90;99.90;;;;;;5051820;28;20088;-70
2022/07/06 01:22:43;;;;;;;7.35;1.95;;;13.90;99.90;;;;;;5033226;28;20048;-71
2022/07/06 01:25:09;;;;;;;5.53;1.83;;;13.90;99.90;;;;;;5029405;28;20106;-71
2022/07/06 01:27:37;;;;;;;6.60;1.90;;;13.90;99.90;;;;;;5034064;28;20111;-70
2022/07/06 01:30:08;;;;;;;6.63;2.13;;;13.90;99.90;;;;;;5015960;28;20033;-71
2022/07/06 01:32:35;;;;;;;6.30;1.83;;;13.90;99.90;;;;;;5036243;28;20081;-70
2022/07/06 01:35:02;;;;;;;5.90;1.80;;;13.90;99.90;;;;;;5032399;28;20045;-70
2022/07/06 01:37:27;;;;;;;5.57;1.70;;;13.90;99.90;;;;;;5031958;28;20093;-70
2022/07/06 01:39:53;;;;;;;6.25;1.85;;;13.90;99.90;;;;;;5032061;28;20081;-70
2022/07/06 01:42:19;;;;;;;7.00;2.08;;;13.90;99.90;;;;;;5030935;28;20053;-71
2022/07/06 01:44:45;;;;;;;6.68;1.95;;;14.00;99.90;;;;;;5019052;28;20041;-70
2022/07/06 01:47:11;;;;;;;6.15;1.90;;;13.90;99.90;;;;;;5042729;28;20499;-70
2022/07/06 01:49:37;;;;;;;9.27;2.63;;;14.00;99.90;;;;;;5047596;28;20056;-70
2022/07/06 01:52:03;;;;;;;5.10;1.60;;;14.00;99.90;;;;;;5051777;28;20053;-71
2022/07/06 01:54:29;;;;;;;6.38;2.40;;;14.00;99.90;;;;;;5038311;28;20140;-70
2022/07/06 01:56:54;;;;;;;7.03;1.70;;;14.00;99.90;;;;;;5036235;28;20041;-72
2022/07/06 01:59:20;;;;;;;7.75;2.25;;;13.90;99.90;;;;;;5039448;28;20049;-72
2022/07/06 02:01:46;;;;;;;7.47;2.25;;;14.00;99.90;;;;;;5034056;28;20124;-71
2022/07/06 02:04:11;;;;;;;9.27;2.25;;;14.00;99.90;;;;;;5028743;28;20053;-70
2022/07/06 02:06:37;;;;;;;8.85;1.90;;;14.00;99.90;;;;;;5004201;28;20053;-70
2022/07/06 02:09:03;;;;;;;6.97;2.00;;;13.90;99.90;;;;;;5042970;28;20076;-70
2022/07/06 02:11:29;;;;;;;7.38;1.90;;;13.90;99.90;;;;;;5038858;28;20049;-69
2022/07/06 02:13:54;;;;;;;5.28;1.60;;;13.90;99.90;;;;;;5051322;28;20067;-70
2022/07/06 02:16:20;;;;;;;6.30;2.00;;;14.00;99.90;;;;;;5051089;28;20051;-69
2022/07/06 02:18:46;;;;;;;4.68;1.70;;;13.90;99.90;;;;;;5001919;28;1102188;-69
2022/07/06 02:21:11;;;;;;;6.88;1.70;;;13.90;99.90;;;;;;5046267;28;20053;-70
2022/07/06 02:23:37;;;;;;;6.07;1.90;;;14.00;99.90;;;;;;5031988;28;20481;-70
2022/07/06 02:26:03;;;;;;;7.50;1.90;;;13.90;99.90;;;;;;5035862;28;20133;-70
2022/07/06 02:28:29;;;;;;;6.53;1.85;;;13.90;99.90;;;;;;5040786;28;20068;-71
2022/07/06 02:30:55;;;;;;;6.47;1.88;;;14.00;99.90;;;;;;5047791;28;20123;-72
2022/07/06 02:33:21;;;;;;;8.70;2.10;;;13.90;99.90;;;;;;5043847;28;20361;-71
2022/07/06 02:35:47;;;;;;;5.13;1.73;;;13.90;99.90;;;;;;5033287;28;20052;-70
2022/07/06 02:38:12;;;;;;;6.35;2.10;;;13.90;99.90;;;;;;5048021;28;20139;-70
2022/07/06 02:40:39;;;;;;;4.57;1.73;;;13.90;99.90;;;;;;5040017;28;20045;-69
2022/07/06 02:43:05;;;;;;;6.97;2.10;;;13.90;99.90;;;;;;5031972;28;20037;-70
2022/07/06 02:45:31;;;;;;;6.88;2.15;;;13.90;99.90;;;;;;5026551;28;20049;-69
2022/07/06 02:47:57;;;;;;;4.85;1.60;;;13.80;99.90;;;;;;5046640;28;20060;-70
2022/07/06 02:50:24;;;;;;;5.38;1.85;;;13.80;99.90;;;;;;5033925;28;20480;-72
2022/07/06 02:52:50;;;;;;;7.35;1.90;;;13.80;99.90;;;;;;5042290;28;20057;-70
2022/07/06 02:55:16;;;;;;;7.28;1.90;;;13.80;99.90;;;;;;5026775;28;20057;-70
2022/07/06 02:57:42;;;;;;;5.07;1.80;;;13.80;99.90;;;;;;5030872;28;20369;-70
2022/07/06 03:00:09;;;;;;;6.35;2.20;;;13.80;99.90;;;;;;5036621;28;20037;-71
2022/07/06 03:02:35;;;;;;;6.20;2.10;;;13.90;99.90;;;;;;5045038;28;20049;-70
2022/07/06 03:05:02;;;;;;;6.32;1.80;;;13.80;99.90;;;;;;5048257;28;20049;-70
2022/07/06 03:07:27;;;;;;;7.03;2.20;;;13.80;99.90;;;;;;5028536;28;20234;-70
2022/07/06 03:09:53;;;;;;;6.75;2.10;;;13.90;99.90;;;;;;5031708;28;20072;-70
2022/07/06 03:12:19;;;;;;;7.15;2.03;;;13.80;99.90;;;;;;5031774;28;20122;-70
2022/07/06 03:14:45;;;;;;;4.80;1.80;;;13.90;99.90;;;;;;5042714;28;20045;-70
2022/07/06 03:17:10;;;;;;;7.55;2.40;;;13.90;99.90;;;;;;5043247;28;20052;-70
2022/07/06 03:19:36;;;;;;;5.07;1.77;;;13.90;99.90;;;;;;5047888;28;20115;-69
2022/07/06 03:22:02;;;;;;;6.82;2.47;;;13.90;99.90;;;;;;5042501;28;20395;-71
2022/07/06 03:24:28;;;;;;;6.40;2.22;;;13.90;99.90;;;;;;5017588;28;20044;-70
2022/07/06 03:26:54;;;;;;;5.60;1.70;;;13.80;99.90;;;;;;5044059;28;20431;-70
2022/07/06 03:29:20;;;;;;;4.97;2.00;;;13.80;99.90;;;;;;5031341;28;20045;-71
2022/07/06 03:31:46;;;;;;;7.20;2.15;;;13.80;99.90;;;;;;5037695;28;20049;-72
2022/07/06 03:34:11;;;;;;;6.32;2.13;;;13.80;99.90;;;;;;5038333;28;20056;-71
2022/07/06 03:36:38;;;;;;;6.75;2.40;;;13.80;99.90;;;;;;5033298;28;20107;-70
2022/07/06 03:39:04;;;;;;;6.10;2.10;;;13.80;99.90;;;;;;5030962;28;20055;-71
2022/07/06 03:41:29;;;;;;;6.93;2.50;;;13.90;99.90;;;;;;5029872;28;20053;-69
2022/07/06 03:43:55;;;;;;;6.40;2.08;;;13.80;99.90;;;;;;5033608;28;20041;-70
2022/07/06 03:46:21;;;;;;;8.63;2.33;;;13.80;99.90;;;;;;5051110;28;20491;-70
2022/07/06 03:48:46;;;;;;;6.55;2.20;;;13.80;99.90;;;;;;5045341;28;20377;-70
2022/07/06 03:51:12;;;;;;;6.97;2.45;;;13.80;99.90;;;;;;5032131;28;20057;-69
2022/07/06 03:53:38;;;;;;;7.03;2.20;;;13.80;99.90;;;;;;5048455;28;20041;-70
2022/07/06 03:58:48;;;;;;;5.75;1.90;;;13.80;99.90;;;;;;5043482;28;20052;-71
2022/07/06 04:01:14;;;;;;;6.13;1.70;;;13.90;99.90;;;;;;5024870;28;20041;-71
2022/07/06 04:03:40;;;;;;;6.18;2.20;;;13.80;99.90;;;;;;5051631;28;20391;-72
2022/07/06 04:06:05;;;;;;;7.75;2.20;;;13.90;99.90;;;;;;5050732;28;20455;-71
2022/07/06 04:08:31;;;;;;;6.80;2.10;;;13.90;99.90;;;;;;5035996;28;20085;-73
2022/07/06 04:10:57;;;;;;;7.25;2.05;;;14.00;99.90;;;;;;5046258;28;20366;-70
2022/07/06 04:13:25;;;;;;;6.93;2.15;;;14.00;99.90;;;;;;5040881;28;20083;-70
2022/07/06 04:15:51;;;;;;;5.95;1.88;;;14.00;99.90;;;;;;5020472;28;20048;-70
2022/07/06 04:18:16;;;;;;;5.65;2.00;;;14.00;99.90;;;;;;5030631;28;20064;-69
2022/07/06 04:20:42;;;;;;;5.43;1.92;;;14.00;99.90;;;;;;5030621;28;20053;-69
2022/07/06 04:23:08;;;;;;;5.78;1.95;;;14.10;99.90;;;;;;5038057;28;20033;-70
2022/07/06 04:25:34;;;;;;;6.32;1.90;;;14.10;99.90;;;;;;5053283;28;20041;-70
2022/07/06 04:28:00;;;;;;;6.38;1.73;;;14.20;99.90;;;;;;5031683;28;20118;-69
2022/07/06 04:30:26;;;;;;;5.57;1.65;;;14.20;99.90;;;;;;5026017;28;20938;-70
2022/07/06 04:32:51;;;;;;;6.07;1.80;;;14.30;99.90;;;;;;5034667;28;20044;-70
2022/07/06 04:35:17;;;;;;;9.82;2.20;;;14.30;99.90;;;;;;5054515;28;20131;-72
2022/07/06 04:37:45;;;;;;;6.78;1.90;;;14.40;99.90;;;;;;5052788;28;20045;-70
2022/07/06 04:40:11;;;;;;;5.97;1.73;;;14.50;99.90;;;;;;5041598;28;20495;-69
2022/07/06 04:42:37;;;;;;;6.28;1.80;;;14.50;99.90;;;;;;5054356;28;20107;-70
2022/07/06 04:45:04;;;;;;;6.75;1.90;;;14.50;99.90;;;;;;5055143;28;20073;-70
2022/07/06 04:47:29;;;;;;;8.70;1.80;;;14.50;99.90;;;;;;5017716;28;20124;-69
2022/07/06 04:49:55;;;;;;;8.32;1.90;;;14.50;99.90;;;;;;5052388;28;20137;-70
2022/07/06 04:52:21;;;;;;;7.10;1.90;;;14.60;99.90;;;;;;5049866;28;20049;-69
2022/07/06 04:54:46;;;;;;;6.20;1.70;;;14.60;99.90;;;;;;5035220;28;20041;-70
2022/07/06 04:57:12;;;;;;;8.75;1.80;;;14.70;99.90;;;;;;5032658;28;20400;-71
2022/07/06 04:59:38;;;;;;;6.40;1.92;;;14.80;99.90;;;;;;5033652;28;20049;-70
2022/07/06 05:02:04;;;;;;;6.82;1.70;;;15.10;99.90;;;;;;5042970;28;20056;-70
2022/07/06 05:04:29;;;;;;;6.63;1.80;;;15.80;99.90;;;;;;5027671;28;20042;-71
2022/07/06 05:06:55;;;;;;;5.47;1.60;;;16.60;99.90;;;;;;5034129;28;20103;-71
2022/07/06 05:09:21;;;;;;;5.55;1.60;;;17.30;99.90;;;;;;5043423;28;20048;-71
2022/07/06 05:11:46;;;;;;;7.18;1.50;;;18.20;99.90;;;;;;5023086;28;20140;-70
2022/07/06 05:14:12;;;;;;;4.93;1.42;;;19.00;99.90;;;;;;5024202;28;20057;-70
2022/07/06 05:16:38;;;;;;;5.78;1.35;;;19.10;99.90;;;;;;5042580;28;20048;-70
2022/07/06 05:19:03;;;;;;;6.07;1.50;;;18.90;99.90;;;;;;5035980;28;20061;-71
2022/07/06 05:21:29;;;;;;;4.45;1.30;;;19.80;99.90;;;;;;5024890;28;20049;-70
2022/07/06 05:23:55;;;;;;;5.65;1.30;;;20.60;99.90;;;;;;5032508;28;20056;-70
2022/07/06 05:26:20;;;;;;;5.60;1.30;;;20.70;97.70;;;;;;5022795;28;20089;-69
2022/07/06 05:28:46;;;;;;;5.35;1.20;;;20.80;99.20;;;;;;5044824;28;20048;-70
2022/07/06 05:31:12;;;;;;;3.88;1.20;;;21.20;98.00;;;;;;5035919;28;20065;-70
2022/07/06 05:33:38;;;;;;;7.13;1.35;;;21.50;96.50;;;;;;5032167;28;20053;-71
2022/07/06 05:36:04;;;;;;;6.53;1.33;;;21.40;95.80;;;;;;5036735;28;20127;-72
2022/07/06 05:38:29;;;;;;;5.82;1.30;;;21.20;95.30;;;;;;5024045;28;20044;-72
2022/07/06 05:40:55;;;;;;;5.05;1.30;;;20.90;93.00;;;;;;5046716;28;20045;-70
2022/07/06 05:43:21;;;;;;;7.88;1.20;;;20.60;93.90;;;;;;5053193;28;20087;-70
2022/07/06 05:45:47;;;;;;;6.72;1.15;;;20.30;93.70;;;;;;5036327;28;20049;-70
2022/07/06 05:50:56;;;;;;;6.60;1.25;;;19.50;96.30;;;;;;5025976;28;20064;-70
2022/07/06 05:53:22;;;;;;;6.60;1.40;;;19.10;97.50;;;;;;5036194;28;20053;-70
2022/07/06 05:55:48;;;;;;;5.30;1.20;;;18.90;98.30;;;;;;5032152;28;20056;-70
2022/07/06 05:58:14;;;;;;;6.65;1.20;;;18.70;99.10;;;;;;5040339;28;20103;-69
2022/07/06 06:00:40;;;;;;;6.07;1.10;;;18.60;99.20;;;;;;5030879;28;20045;-70
2022/07/06 06:03:06;;;;;;;5.25;1.10;;;18.40;99.40;;;;;;5043441;28;20039;-71
2022/07/06 06:05:32;;;;;;;5.95;1.10;;;18.20;99.40;;;;;;5041965;28;20037;-71
2022/07/06 06:07:57;;;;;;;5.95;1.20;;;18.00;99.90;;;;;;5045952;28;20052;-71
2022/07/06 06:10:24;;;;;;;6.30;1.00;;;17.90;99.90;;;;;;5041956;28;20137;-71
2022/07/06 06:12:50;;;;;;;5.85;1.05;;;17.70;99.90;;;;;;5038488;28;20049;-70
2022/07/06 06:15:16;;;;;;;5.72;1.33;;;17.50;99.90;;;;;;5034891;28;20041;-70
2022/07/06 06:17:41;;;;;;;6.97;1.40;;;17.50;99.90;;;;;;5050360;28;20047;-70
2022/07/06 06:20:10;;;;;;;7.05;1.20;;;17.40;99.90;;;;;;5052047;28;20523;-71
2022/07/06 06:22:56;;;;;;;4.82;1.02;;;17.30;99.90;;;;;;5051420;28;20441;-70
2022/07/06 06:25:36;;;;;;;6.82;1.15;;;17.30;99.90;;;;;;5052081;28;20369;-69
2022/07/06 06:28:03;;;;;;;5.32;1.10;;;17.30;99.90;;;;;;5050376;28;20059;-69
2022/07/06 06:30:30;;;;;;;6.78;1.20;;;17.30;99.90;;;;;;5032034;28;20057;-70
2022/07/06 06:33:17;;;;;;;7.97;1.10;;;17.30;99.90;;;;;;5037297;28;20045;-71
2022/07/06 06:35:44;;;;;;;5.88;1.10;;;17.30;99.90;;;;;;5049260;28;20111;-70
2022/07/06 06:38:11;;;;;;;5.60;1.00;;;17.30;99.90;;;;;;5020609;28;20056;-71
2022/07/06 06:40:37;;;;;;;4.53;1.08;;;17.30;99.90;;;;;;5032873;28;20037;-73
2022/07/06 06:43:02;;;;;;;7.32;1.10;;;17.30;99.90;;;;;;5032105;28;20037;-72
2022/07/06 06:45:28;;;;;;;7.25;1.10;;;17.20;99.90;;;;;;5032251;28;20095;-71
2022/07/06 06:47:54;;;;;;;4.13;1.00;;;17.30;99.90;;;;;;5028695;28;20052;-71
2022/07/06 06:50:20;;;;;;;4.50;1.02;;;17.30;99.90;;;;;;5035312;28;20441;-70
2022/07/06 06:52:46;;;;;;;4.10;0.95;;;17.30;99.90;;;;;;5016740;28;20507;-70
2022/07/06 06:55:12;;;;;;;6.18;1.23;;;17.20;99.90;;;;;;5030864;28;20049;-70
2022/07/06 06:57:38;;;;;;;4.97;1.10;;;17.20;99.90;;;;;;5029516;28;20060;-71
2022/07/06 07:00:05;;;;;;;6.63;1.08;;;17.10;99.90;;;;;;5034738;28;20056;-70
2022/07/06 07:02:31;;;;;;;6.25;1.08;;;17.00;99.90;;;;;;5034505;28;20057;-70
2022/07/06 07:04:56;;;;;;;5.10;1.00;;;16.80;99.90;;;;;;5049463;28;20124;-71
2022/07/06 07:07:22;;;;;;;5.45;1.00;;;16.80;99.90;;;;;;5015152;28;20045;-71
2022/07/06 07:09:48;;;;;;;6.03;1.20;;;16.70;99.90;;;;;;5031217;28;20045;-70
2022/07/06 07:12:14;;;;;;;3.95;0.93;;;16.70;99.90;;;;;;5048617;28;20129;-71
2022/07/06 07:14:40;;;;;;;6.60;1.10;;;16.70;99.90;;;;;;5031001;28;20045;-69
2022/07/06 07:17:06;;;;;;;6.53;1.02;;;16.90;99.90;;;;;;5052798;28;20544;-70
2022/07/06 07:19:32;;;;;;;5.72;1.20;;;17.10;99.90;;;;;;5050008;28;20060;-70
2022/07/06 07:21:58;;;;;;;4.72;0.93;;;17.30;99.90;;;;;;5037159;28;20100;-69
2022/07/06 07:24:23;;;;;;;6.25;1.00;;;17.50;99.90;;;;;;5033237;28;20042;-70
2022/07/06 07:26:49;;;;;;;4.80;1.00;;;17.70;99.90;;;;;;5029791;28;20061;-74
2022/07/06 07:29:15;;;;;;;5.20;1.00;;;17.70;99.90;;;;;;5032919;28;20099;-69
2022/07/06 07:31:41;;;;;;;4.05;0.90;;;17.80;99.90;;;;;;5029960;28;20053;-71
2022/07/06 07:34:07;;;;;;;4.38;1.00;;;17.80;99.90;;;;;;5046128;28;20048;-69
2022/07/06 07:36:33;;;;;;;5.03;1.10;;;18.00;99.90;;;;;;5031318;28;20484;-68
2022/07/06 07:38:58;;;;;;;5.72;1.00;;;18.00;99.90;;;;;;5034857;28;20116;-70
2022/07/06 07:41:24;;;;;;;6.05;1.10;;;18.00;99.90;;;;;;5030866;28;20051;-70
2022/07/06 07:43:50;;;;;;;7.03;1.20;;;17.80;99.90;;;;;;5031945;28;20038;-75
2022/07/06 07:46:16;;;;;;;5.65;1.10;;;17.70;99.90;;;;;;5036587;28;20045;-74
2022/07/06 07:48:41;;;;;;;6.22;0.82;;;17.60;99.90;;;;;;5034096;28;20520;-70
2022/07/06 07:51:07;;;;;;;5.00;0.90;;;17.60;99.90;;;;;;5031096;28;20085;-69
2022/07/06 07:53:33;;;;;;;4.25;0.90;;;17.50;99.90;;;;;;5049544;28;20049;-70
2022/07/06 07:55:58;;;;;;;4.57;1.00;;;17.50;99.90;;;;;;5030453;28;20107;-70
2022/07/06 07:58:24;;;;;;;5.05;1.10;;;17.50;99.90;;;;;;5029873;28;20129;-70
2022/07/06 08:00:50;;;;;;;7.90;1.20;;;17.50;99.90;;;;;;5039565;28;20050;-70
2022/07/06 08:03:15;;;;;;;5.53;1.08;;;17.50;99.90;;;;;;5033237;28;20045;-69
2022/07/06 08:05:41;;;;;;;5.65;1.10;;;17.50;99.90;;;;;;5039881;28;20056;-70
2022/07/06 08:08:07;;;;;;;6.40;1.13;;;17.50;99.90;;;;;;5020395;28;20060;-71
2022/07/06 08:10:33;;;;;;;6.13;1.00;;;17.80;99.90;;;;;;5050696;28;20060;-72
2022/07/06 08:12:59;;;;;;;4.68;0.95;;;18.10;99.90;;;;;;5040359;28;20180;-72
2022/07/06 08:15:25;;;;;;;5.88;1.10;;;18.40;99.90;;;;;;5035076;28;20056;-72
2022/07/06 08:17:50;;;;;;;5.97;1.02;;;18.60;99.90;;;;;;5056423;28;20118;-72
2022/07/06 08:20:16;;;;;;;6.68;1.10;;;18.90;99.90;;;;;;5032636;28;20060;-69
2022/07/06 08:22:42;;;;;;;6.43;1.35;;;19.10;99.10;;;;;;5037213;28;20061;-69
2022/07/06 08:25:09;;;;;;;5.88;1.02;;;19.40;98.30;;;;;;5043852;28;20045;-70
2022/07/06 08:27:35;;;;;;;5.68;1.10;;;19.40;97.80;;;;;;5039500;28;20099;-70
2022/07/06 08:30:02;;;;;;;6.95;1.10;;;19.70;95.80;;;;;;5033842;28;20232;-69
2022/07/06 08:32:28;;;;;;;5.57;0.98;;;20.10;95.50;;;;;;5036766;28;20061;-69
2022/07/06 08:34:53;;;;;;;5.10;1.02;;;20.40;94.90;;;;;;5038033;28;20045;-72
2022/07/06 08:37:19;;;;;;;5.30;0.98;;;20.60;94.20;;;;;;5033753;28;20053;-69
2022/07/06 08:39:45;;;;;;;4.20;0.82;;;21.00;92.10;;;;;;5055467;28;20152;-69
2022/07/06 08:42:14;;;;;;;5.63;1.08;;;21.20;90.70;;;;;;5036514;28;20124;-71
2022/07/06 08:44:40;;;;;;;5.72;1.10;;;20.90;89.20;;;;;;5036294;28;20050;-70
2022/07/06 08:47:07;;;;;;;6.78;1.15;;;20.50;87.90;;;;;;5032393;28;20162;-71
2022/07/06 08:49:34;;;;;;;5.72;1.05;;;20.10;90.50;;;;;;5034409;28;20475;-69
2022/07/06 08:52:02;;;;;;;7.07;1.05;;;19.80;90.70;;;;;;5036968;28;20033;-69
2022/07/06 08:54:28;;;;;;;7.10;1.00;;;19.50;92.20;;;;;;5032235;28;20136;-68
2022/07/06 08:56:54;;;;;;;4.40;0.90;;;19.10;92.80;;;;;;5033045;28;20056;-70
2022/07/06 08:59:20;;;;;;;7.57;1.30;;;18.90;94.00;;;;;;5031946;28;20041;-69
2022/07/06 09:01:47;;;;;;;6.88;1.10;;;18.80;94.60;;;;;;5032032;28;20053;-72
2022/07/06 09:04:16;;;;;;;4.35;1.00;;;18.60;95.30;;;;;;5031897;28;20061;-72
2022/07/06 09:06:45;;;;;;;5.15;0.85;;;18.60;95.60;;;;;;5034953;28;20107;-70
2022/07/06 09:09:17;;;;;;;7.75;1.30;;;18.50;95.70;;;;;;5035728;28;20057;-70
2022/07/06 09:11:42;;;;;;;4.63;1.05;;;18.50;97.00;;;;;;5032436;28;20091;-70
2022/07/06 09:14:09;;;;;;;6.88;1.13;;;18.60;97.10;;;;;;5035295;28;20044;-70
2022/07/06 09:16:35;;;;;;;5.93;1.00;;;18.60;96.60;;;;;;5036387;28;20049;-71
2022/07/06 09:19:01;;;;;;;3.75;0.90;;;18.70;96.80;;;;;;5032874;28;20061;-70
2022/07/06 09:21:32;;;;;;;7.38;1.00;;;19.00;96.90;;;;;;5036927;28;20041;-72
2022/07/06 09:24:02;;;;;;;5.43;1.20;;;19.20;94.30;;;;;;5036749;28;20048;-75
2022/07/06 09:26:28;;;;;;;3.92;0.80;;;19.50;95.30;;;;;;5032039;28;20041;-71
2022/07/06 09:28:56;;;;;;;5.28;0.95;;;19.90;93.90;;;;;;5034668;28;20052;-67
2022/07/06 09:31:22;;;;;;;4.93;0.85;;;20.20;92.10;;;;;;5035007;28;20545;-71
2022/07/06 09:34:10;;;;;;;3.92;0.75;;;20.50;90.60;;;;;;5035471;28;20132;-69
2022/07/06 09:36:47;;;;;;;5.32;1.00;;;20.60;85.80;;;;;;5038659;28;20138;-69
2022/07/06 09:39:26;;;;;;;3.17;0.80;;;20.20;84.50;;;;;;5018867;28;20045;-70
2022/07/06 09:41:57;;;;;;;5.72;0.98;;;20.20;88.20;;;;;;5039897;28;20042;-70
2022/07/06 09:44:33;;;;;;;6.18;0.95;;;20.50;90.10;;;;;;5030377;28;20042;-72
2022/07/06 09:47:08;;;;;;;3.95;0.88;;;20.80;88.40;;;;;;5031259;28;20085;-70
2022/07/06 09:49:35;;;;;;;4.45;0.90;;;21.00;85.80;;;;;;5032730;28;20061;-71
2022/07/06 09:52:03;;;;;;;5.22;0.90;;;20.90;81.70;;;;;;5033663;28;20061;-72
2022/07/06 09:54:29;;;;;;;6.55;1.02;;;20.50;80.70;;;;;;5034002;28;20056;-70
2022/07/06 09:56:56;;;;;;;5.00;0.90;;;20.40;83.50;;;;;;5030541;28;20053;-70
2022/07/06 09:59:27;;;;;;;4.32;0.82;;;20.50;84.10;;;;;;5048587;28;20056;-69
2022/07/06 10:01:58;;;;;;;3.95;0.88;;;20.70;81.90;;;;;;5025406;28;20041;-69
2022/07/06 10:04:25;;;;;;;3.03;0.88;;;21.10;82.40;;;;;;5031703;28;20057;-71
2022/07/06 10:06:52;;;;;;;4.82;0.90;;;21.20;81.70;;;;;;5054769;28;20080;-69
2022/07/06 10:09:20;;;;;;;6.43;0.85;;;21.30;81.60;;;;;;5031974;28;20058;-70
2022/07/06 10:11:53;;;;;;;4.35;0.90;;;21.10;82.30;;;;;;5027095;28;20053;-71
2022/07/06 10:14:28;;;;;;;4.82;0.80;;;21.00;83.60;;;;;;5036030;28;20056;-70
2022/07/06 10:16:57;;;;;;;4.05;0.80;;;20.80;80.50;;;;;;5034169;28;20396;-70
2022/07/06 10:19:23;;;;;;;3.25;0.85;;;20.80;80.60;;;;;;5032416;28;20057;-71
2022/07/06 10:21:51;;;;;;;3.25;0.70;;;20.90;80.10;;;;;;5033702;28;20058;-71
2022/07/06 10:24:19;;;;;;;3.22;0.70;;;21.00;80.40;;;;;;5035506;28;20044;-70
2022/07/06 10:26:46;;;;;;;3.47;0.70;;;21.20;78.00;;;;;;5031431;28;20053;-70
2022/07/06 10:29:13;;;;;;;3.53;0.80;;;21.00;78.80;;;;;;5037095;28;20055;-70
2022/07/06 10:31:43;;;;;;;3.97;0.80;;;20.90;77.20;;;;;;5030768;28;20579;-70
2022/07/06 10:34:12;;;;;;;4.53;0.90;;;20.80;78.70;;;;;;5034609;28;20053;-70
2022/07/06 10:36:43;;;;;;;2.88;0.70;;;20.60;77.20;;;;;;5049467;28;20564;-69
2022/07/06 10:41:55;;;;;;;3.17;0.70;;;20.10;77.40;;;;;;5036098;28;20068;-70
2022/07/06 10:44:24;;;;;;;2.70;0.70;;;20.00;79.30;;;;;;5016625;28;20053;-69
2022/07/06 10:46:58;;;;;;;2.58;0.70;;;20.10;78.70;;;;;;5022332;28;20067;-70
2022/07/06 10:49:26;;;;;;;5.03;0.98;;;20.50;81.10;;;;;;5034391;28;20080;-72
2022/07/06 10:51:52;;;;;;;4.65;0.70;;;20.70;79.00;;;;;;5040363;28;20073;-72
2022/07/06 10:54:19;;;;;;;3.70;0.80;;;20.80;76.60;;;;;;5031962;28;20052;-72
2022/07/06 10:56:48;;;;;;;4.35;0.80;;;20.80;75.90;;;;;;5012098;28;20045;-70
2022/07/06 10:59:21;;;;;;;2.08;0.60;;;20.80;76.50;;;;;;5031943;28;20049;-70
2022/07/06 11:02:13;;;;;;;3.80;0.80;;;21.30;79.40;;;;;;5045513;28;20148;-70
2022/07/06 11:04:43;;;;;;;3.17;0.80;;;21.70;75.10;;;;;;5031641;28;20204;-71
2022/07/06 11:07:14;;;;;;;3.33;0.70;;;22.00;72.80;;;;;;5030957;28;20083;-71
2022/07/06 11:09:47;;;;;;;4.10;0.80;;;21.90;72.70;;;;;;5033692;28;20073;-71
2022/07/06 11:12:20;;;;;;;3.88;0.80;;;22.10;71.30;;;;;;5031454;28;20110;-73
2022/07/06 11:14:47;;;;;;;3.17;0.65;;;22.00;67.70;;;;;;5012573;28;20522;-70
2022/07/06 11:17:14;;;;;;;4.32;0.80;;;21.90;70.50;;;;;;5034293;28;20480;-72
2022/07/06 11:19:56;;;;;;;3.75;0.70;;;21.90;71.40;;;;;;5029933;28;20076;-70
2022/07/06 11:22:24;;;;;;;;;;;21.90;70.90;;;;;;5029278;28;20607;-69
2022/07/06 11:24:51;;;;;;;2.78;0.70;;;21.80;67.50;;;;;;5031367;28;19921;-69
2022/07/06 11:27:17;;;;;;;5.15;0.90;;;21.60;71.10;;;;;;5032859;28;20045;-71
2022/07/06 11:29:44;;;;;;;4.60;0.80;;;21.70;72.30;;;;;;5049041;28;20088;-69
2022/07/06 11:32:13;;;;;;;4.28;0.80;;;21.60;71.70;;;;;;5032059;28;20049;-71
2022/07/06 11:34:42;;;;;;;3.35;0.70;;;21.60;70.30;;;;;;5033430;28;20520;-74
2022/07/06 11:37:13;;;;;;;3.92;0.80;;;22.00;73.30;;;;;;5054745;28;20084;-74
2022/07/06 11:39:41;;;;;;;3.90;0.80;;;22.30;68.30;;;;;;5036175;28;20092;-70
2022/07/06 11:42:08;;;;;;;4.22;0.80;;;22.40;67.40;;;;;;5043904;28;20096;-71
2022/07/06 11:44:35;;;;;;;4.35;0.80;;;22.40;68.80;;;;;;5037270;28;20550;-70
2022/07/06 11:47:03;;;;;;;4.57;0.85;;;22.30;69.20;;;;;;5036347;28;20103;-71
2022/07/06 11:49:30;;;;;;;3.50;0.80;;;22.40;70.20;;;;;;5034542;28;20381;-74
2022/07/06 11:51:56;;;;;;;4.45;0.95;;;22.40;68.30;;;;;;5032764;28;20049;-70
2022/07/06 11:54:23;;;;;;;4.07;0.80;;;22.30;68.50;;;;;;5017648;28;20048;-72
2022/07/06 11:56:59;;;;;;;4.80;0.82;;;22.10;69.50;;;;;;5030000;28;20042;-70
2022/07/06 11:59:26;;;;;;;4.15;0.85;;;22.00;70.00;;;;;;5032326;28;20052;-71
2022/07/06 12:02:06;;;;;;;4.32;0.95;;;22.00;71.10;;;;;;5034113;28;20057;-71
2022/07/06 12:04:34;;;;;;;3.80;0.93;;;22.00;69.30;;;;;;5034773;28;20041;-71
2022/07/06 12:07:09;;;;;;;4.20;0.90;;;21.90;69.20;;;;;;5050378;28;20061;-75
2022/07/06 12:09:37;;;;;;;4.60;0.90;;;21.70;68.30;;;;;;5032284;28;20520;-72
2022/07/06 12:12:04;;;;;;;3.67;0.85;;;21.70;69.10;;;;;;5031088;28;20415;-76
2022/07/06 12:14:32;;;;;;;4.93;0.90;;;21.80;69.50;;;;;;5046337;28;20048;-72
2022/07/06 12:17:06;;;;;;;5.63;0.90;;;21.80;69.10;;;;;;5034481;28;20041;-72
2022/07/06 12:19:33;;;;;;;5.15;1.02;;;21.80;69.00;;;;;;5038046;28;20045;-71
2022/07/06 12:22:01;;;;;;;5.32;0.93;;;21.50;69.90;;;;;;5044862;28;20049;-73
2022/07/06 12:24:30;;;;;;;4.13;0.90;;;21.40;71.10;;;;;;5031472;28;20045;-71
2022/07/06 12:26:56;;;;;;;6.57;1.10;;;21.50;73.30;;;;;;5049209;28;20053;-73
2022/07/06 12:29:23;;;;;;;4.60;0.90;;;21.60;75.60;;;;;;5048507;28;20201;-72
2022/07/06 12:31:48;;;;;;;3.88;0.95;;;21.90;75.00;;;;;;5053748;28;20111;-73
2022/07/06 12:34:17;;;;;;;4.75;0.80;;;22.30;75.20;;;;;;5048179;28;20053;-74
2022/07/06 12:36:51;;;;;;;4.82;1.10;;;22.50;73.60;;;;;;5045479;28;20083;-71
2022/07/06 12:39:19;;;;;;;4.53;1.08;;;22.40;67.40;;;;;;5044941;28;20081;-73
2022/07/06 12:41:48;;;;;;;5.05;0.90;;;21.80;68.10;;;;;;5040558;28;20073;-71
2022/07/06 12:44:17;;;;;;;4.60;0.90;;;21.70;68.30;;;;;;5031194;28;20045;-72
2022/07/06 12:46:43;;;;;;;5.20;0.80;;;21.50;70.30;;;;;;5049768;28;20049;-70
2022/07/06 12:49:15;;;;;;;4.97;0.90;;;21.60;70.50;;;;;;5022656;28;20381;-71
2022/07/06 12:51:53;;;;;;;3.67;1.00;;;21.80;71.00;;;;;;5049913;28;20057;-72
2022/07/06 12:54:19;;;;;;;5.57;0.90;;;22.30;73.00;;;;;;5032644;28;20053;-71
2022/07/06 12:57:14;;;;;;;2.65;0.70;;;22.40;68.00;;;;;;5031143;28;20056;-74